sensor_id;sensor_type;location;lat;lon;timestamp;P1;durP1;ratioP1;P2;durP2;ratioP2
42478;SDS011;28110;47.080;9.476;2023-09-18T00:01:54;13.63;;;2.73;;
42478;SDS011;28110;47.080;9.476;2023-09-18T00:04:20;15.70;;;2.80;;
42478;SDS011;28110;47.080;9.476;2023-09-18T00:06:45;16.70;;;2.97;;
42478;SDS011;28110;47.080;9.476;2023-09-18T00:09:11;21.33;;;3.37;;
42478;SDS011;28110;47.080;9.476;2023-09-18T00:11:38;16.48;;;3.13;;
42478;SDS011;28110;47.080;9.476;2023-09-18T00:14:04;18.65;;;2.70;;
42478;SDS011;28110;47.080;9.476;2023-09-18T00:16:30;17.20;;;3.23;;
42478;SDS011;28110;47.080;9.476;2023-09-18T00:18:56;15.35;;;3.17;;
42478;SDS011;28110;47.080;9.476;2023-09-18T00:21:22;15.10;;;2.90;;
42478;SDS011;28110;47.080;9.476;2023-09-18T00:23:50;16.80;;;2.90;;
42478;SDS011;28110;47.080;9.476;2023-09-18T00:26:16;15.20;;;3.92;;
42478;SDS011;28110;47.080;9.476;2023-09-18T00:28:41;11.75;;;3.08;;
42478;SDS011;28110;47.080;9.476;2023-09-18T00:31:07;16.60;;;3.17;;
42478;SDS011;28110;47.080;9.476;2023-09-18T00:33:32;21.90;;;2.90;;
42478;SDS011;28110;47.080;9.476;2023-09-18T00:35:58;15.25;;;3.10;;
42478;SDS011;28110;47.080;9.476;2023-09-18T00:38:24;18.67;;;3.40;;
42478;SDS011;28110;47.080;9.476;2023-09-18T00:40:49;15.77;;;3.27;;
42478;SDS011;28110;47.080;9.476;2023-09-18T00:43:15;11.52;;;2.72;;
42478;SDS011;28110;47.080;9.476;2023-09-18T00:45:42;10.37;;;2.53;;
42478;SDS011;28110;47.080;9.476;2023-09-18T00:48:09;17.73;;;2.72;;
42478;SDS011;28110;47.080;9.476;2023-09-18T00:50:36;18.20;;;3.05;;
42478;SDS011;28110;47.080;9.476;2023-09-18T00:53:02;17.20;;;3.33;;
42478;SDS011;28110;47.080;9.476;2023-09-18T00:55:28;13.77;;;3.42;;
42478;SDS011;28110;47.080;9.476;2023-09-18T00:57:55;18.88;;;2.85;;
42478;SDS011;28110;47.080;9.476;2023-09-18T01:00:21;13.38;;;3.30;;
42478;SDS011;28110;47.080;9.476;2023-09-18T01:02:47;11.77;;;2.73;;
42478;SDS011;28110;47.080;9.476;2023-09-18T01:05:13;17.80;;;3.63;;
42478;SDS011;28110;47.080;9.476;2023-09-18T01:07:41;16.58;;;3.08;;
42478;SDS011;28110;47.080;9.476;2023-09-18T01:10:07;14.97;;;2.90;;
42478;SDS011;28110;47.080;9.476;2023-09-18T01:12:37;17.77;;;3.72;;
42478;SDS011;28110;47.080;9.476;2023-09-18T01:15:12;15.77;;;3.03;;
42478;SDS011;28110;47.080;9.476;2023-09-18T01:17:51;15.13;;;3.20;;
42478;SDS011;28110;47.080;9.476;2023-09-18T01:20:17;17.70;;;3.07;;
42478;SDS011;28110;47.080;9.476;2023-09-18T01:22:43;17.90;;;3.40;;
42478;SDS011;28110;47.080;9.476;2023-09-18T01:25:09;18.23;;;3.50;;
42478;SDS011;28110;47.080;9.476;2023-09-18T01:27:34;17.10;;;3.60;;
42478;SDS011;28110;47.080;9.476;2023-09-18T01:30:00;18.13;;;3.57;;
42478;SDS011;28110;47.080;9.476;2023-09-18T01:32:27;19.20;;;3.25;;
42478;SDS011;28110;47.080;9.476;2023-09-18T01:34:56;20.20;;;3.22;;
42478;SDS011;28110;47.080;9.476;2023-09-18T01:37:28;29.03;;;4.63;;
42478;SDS011;28110;47.080;9.476;2023-09-18T01:39:55;21.95;;;3.70;;
42478;SDS011;28110;47.080;9.476;2023-09-18T01:42:24;18.05;;;3.50;;
42478;SDS011;28110;47.080;9.476;2023-09-18T01:44:52;23.75;;;4.07;;
42478;SDS011;28110;47.080;9.476;2023-09-18T01:47:19;18.90;;;3.08;;
42478;SDS011;28110;47.080;9.476;2023-09-18T01:49:46;22.37;;;3.70;;
42478;SDS011;28110;47.080;9.476;2023-09-18T01:52:12;17.85;;;3.30;;
42478;SDS011;28110;47.080;9.476;2023-09-18T01:54:38;20.35;;;3.33;;
42478;SDS011;28110;47.080;9.476;2023-09-18T01:57:04;25.73;;;4.27;;
42478;SDS011;28110;47.080;9.476;2023-09-18T01:59:30;17.67;;;4.18;;
42478;SDS011;28110;47.080;9.476;2023-09-18T02:01:55;23.80;;;3.40;;
42478;SDS011;28110;47.080;9.476;2023-09-18T02:04:21;21.33;;;4.05;;
42478;SDS011;28110;47.080;9.476;2023-09-18T02:06:49;30.90;;;5.25;;
42478;SDS011;28110;47.080;9.476;2023-09-18T02:09:15;24.77;;;4.72;;
42478;SDS011;28110;47.080;9.476;2023-09-18T02:11:43;22.83;;;4.30;;
42478;SDS011;28110;47.080;9.476;2023-09-18T02:14:09;26.67;;;4.25;;
42478;SDS011;28110;47.080;9.476;2023-09-18T02:16:36;20.80;;;4.32;;
42478;SDS011;28110;47.080;9.476;2023-09-18T02:19:02;30.70;;;4.30;;
42478;SDS011;28110;47.080;9.476;2023-09-18T02:21:28;27.83;;;4.88;;
42478;SDS011;28110;47.080;9.476;2023-09-18T02:23:54;26.77;;;4.13;;
42478;SDS011;28110;47.080;9.476;2023-09-18T02:26:20;19.20;;;4.53;;
42478;SDS011;28110;47.080;9.476;2023-09-18T02:28:46;26.13;;;4.57;;
42478;SDS011;28110;47.080;9.476;2023-09-18T02:31:12;36.47;;;5.63;;
42478;SDS011;28110;47.080;9.476;2023-09-18T02:33:38;25.00;;;4.77;;
42478;SDS011;28110;47.080;9.476;2023-09-18T02:36:04;30.80;;;5.47;;
42478;SDS011;28110;47.080;9.476;2023-09-18T02:38:30;23.92;;;5.07;;
42478;SDS011;28110;47.080;9.476;2023-09-18T02:40:56;26.73;;;4.90;;
42478;SDS011;28110;47.080;9.476;2023-09-18T02:43:22;26.23;;;5.03;;
42478;SDS011;28110;47.080;9.476;2023-09-18T02:45:48;34.90;;;4.70;;
42478;SDS011;28110;47.080;9.476;2023-09-18T02:48:14;26.80;;;5.10;;
42478;SDS011;28110;47.080;9.476;2023-09-18T02:50:40;29.40;;;4.47;;
42478;SDS011;28110;47.080;9.476;2023-09-18T02:53:06;27.60;;;5.13;;
42478;SDS011;28110;47.080;9.476;2023-09-18T02:55:33;25.13;;;5.03;;
42478;SDS011;28110;47.080;9.476;2023-09-18T02:57:59;26.67;;;4.57;;
42478;SDS011;28110;47.080;9.476;2023-09-18T03:00:25;27.73;;;4.73;;
42478;SDS011;28110;47.080;9.476;2023-09-18T03:02:50;30.57;;;5.23;;
42478;SDS011;28110;47.080;9.476;2023-09-18T03:05:16;32.70;;;5.07;;
42478;SDS011;28110;47.080;9.476;2023-09-18T03:07:41;34.20;;;4.93;;
42478;SDS011;28110;47.080;9.476;2023-09-18T03:10:07;32.60;;;5.38;;
42478;SDS011;28110;47.080;9.476;2023-09-18T03:12:34;32.42;;;4.95;;
42478;SDS011;28110;47.080;9.476;2023-09-18T03:14:59;32.07;;;5.13;;
42478;SDS011;28110;47.080;9.476;2023-09-18T03:17:25;28.17;;;5.53;;
42478;SDS011;28110;47.080;9.476;2023-09-18T03:19:51;36.33;;;4.78;;
42478;SDS011;28110;47.080;9.476;2023-09-18T03:22:17;31.47;;;5.70;;
42478;SDS011;28110;47.080;9.476;2023-09-18T03:24:42;31.33;;;5.07;;
42478;SDS011;28110;47.080;9.476;2023-09-18T03:27:08;30.17;;;5.23;;
42478;SDS011;28110;47.080;9.476;2023-09-18T03:29:33;33.47;;;5.57;;
42478;SDS011;28110;47.080;9.476;2023-09-18T03:31:59;31.63;;;5.32;;
42478;SDS011;28110;47.080;9.476;2023-09-18T03:34:24;34.37;;;5.70;;
42478;SDS011;28110;47.080;9.476;2023-09-18T03:36:52;42.75;;;6.05;;
42478;SDS011;28110;47.080;9.476;2023-09-18T03:39:18;32.90;;;5.20;;
42478;SDS011;28110;47.080;9.476;2023-09-18T03:41:43;31.93;;;5.23;;
42478;SDS011;28110;47.080;9.476;2023-09-18T03:44:09;33.70;;;4.83;;
42478;SDS011;28110;47.080;9.476;2023-09-18T03:46:35;40.75;;;6.00;;
42478;SDS011;28110;47.080;9.476;2023-09-18T03:49:01;21.83;;;4.43;;
42478;SDS011;28110;47.080;9.476;2023-09-18T03:51:28;32.20;;;5.47;;
42478;SDS011;28110;47.080;9.476;2023-09-18T03:53:54;37.35;;;5.78;;
42478;SDS011;28110;47.080;9.476;2023-09-18T03:56:20;34.17;;;4.93;;
42478;SDS011;28110;47.080;9.476;2023-09-18T03:58:46;32.15;;;5.60;;
42478;SDS011;28110;47.080;9.476;2023-09-18T04:01:14;30.00;;;5.25;;
42478;SDS011;28110;47.080;9.476;2023-09-18T04:03:40;31.63;;;5.77;;
42478;SDS011;28110;47.080;9.476;2023-09-18T04:06:06;34.67;;;4.90;;
42478;SDS011;28110;47.080;9.476;2023-09-18T04:08:31;26.23;;;5.80;;
42478;SDS011;28110;47.080;9.476;2023-09-18T04:10:57;31.38;;;4.38;;
42478;SDS011;28110;47.080;9.476;2023-09-18T04:13:23;23.50;;;4.10;;
42478;SDS011;28110;47.080;9.476;2023-09-18T04:15:49;32.63;;;5.55;;
42478;SDS011;28110;47.080;9.476;2023-09-18T04:18:14;29.03;;;4.97;;
42478;SDS011;28110;47.080;9.476;2023-09-18T04:20:40;29.90;;;4.93;;
42478;SDS011;28110;47.080;9.476;2023-09-18T04:25:51;25.48;;;4.57;;
42478;SDS011;28110;47.080;9.476;2023-09-18T04:28:18;21.45;;;4.03;;
42478;SDS011;28110;47.080;9.476;2023-09-18T04:30:44;24.47;;;4.30;;
42478;SDS011;28110;47.080;9.476;2023-09-18T04:33:10;27.88;;;4.10;;
42478;SDS011;28110;47.080;9.476;2023-09-18T04:35:37;28.42;;;4.22;;
42478;SDS011;28110;47.080;9.476;2023-09-18T04:38:04;20.38;;;4.03;;
42478;SDS011;28110;47.080;9.476;2023-09-18T04:40:31;31.55;;;4.95;;
42478;SDS011;28110;47.080;9.476;2023-09-18T04:42:58;32.43;;;4.47;;
42478;SDS011;28110;47.080;9.476;2023-09-18T04:45:23;23.95;;;4.65;;
42478;SDS011;28110;47.080;9.476;2023-09-18T04:47:50;18.92;;;4.45;;
42478;SDS011;28110;47.080;9.476;2023-09-18T04:50:16;27.03;;;4.57;;
42478;SDS011;28110;47.080;9.476;2023-09-18T04:52:41;35.35;;;4.85;;
42478;SDS011;28110;47.080;9.476;2023-09-18T04:55:08;22.30;;;5.25;;
42478;SDS011;28110;47.080;9.476;2023-09-18T04:57:34;24.10;;;4.70;;
42478;SDS011;28110;47.080;9.476;2023-09-18T05:00:00;28.60;;;4.15;;
42478;SDS011;28110;47.080;9.476;2023-09-18T05:02:26;22.63;;;4.68;;
42478;SDS011;28110;47.080;9.476;2023-09-18T05:04:52;26.57;;;3.70;;
42478;SDS011;28110;47.080;9.476;2023-09-18T05:07:18;27.35;;;4.70;;
42478;SDS011;28110;47.080;9.476;2023-09-18T05:09:43;24.17;;;4.17;;
42478;SDS011;28110;47.080;9.476;2023-09-18T05:12:09;25.03;;;4.33;;
42478;SDS011;28110;47.080;9.476;2023-09-18T05:14:39;19.35;;;3.67;;
42478;SDS011;28110;47.080;9.476;2023-09-18T05:17:05;19.80;;;3.72;;
42478;SDS011;28110;47.080;9.476;2023-09-18T05:19:31;25.23;;;4.32;;
42478;SDS011;28110;47.080;9.476;2023-09-18T05:21:57;18.07;;;3.90;;
42478;SDS011;28110;47.080;9.476;2023-09-18T05:24:22;19.57;;;3.97;;
42478;SDS011;28110;47.080;9.476;2023-09-18T05:26:52;23.92;;;4.10;;
42478;SDS011;28110;47.080;9.476;2023-09-18T05:29:18;23.42;;;3.88;;
42478;SDS011;28110;47.080;9.476;2023-09-18T05:31:44;35.70;;;4.63;;
42478;SDS011;28110;47.080;9.476;2023-09-18T05:34:10;28.17;;;4.95;;
42478;SDS011;28110;47.080;9.476;2023-09-18T05:36:37;24.43;;;4.40;;
42478;SDS011;28110;47.080;9.476;2023-09-18T05:39:02;27.10;;;4.53;;
42478;SDS011;28110;47.080;9.476;2023-09-18T05:41:29;19.83;;;4.22;;
42478;SDS011;28110;47.080;9.476;2023-09-18T05:43:55;24.00;;;3.57;;
42478;SDS011;28110;47.080;9.476;2023-09-18T05:46:21;20.23;;;3.95;;
42478;SDS011;28110;47.080;9.476;2023-09-18T05:48:47;26.30;;;4.70;;
42478;SDS011;28110;47.080;9.476;2023-09-18T05:51:12;23.27;;;4.70;;
42478;SDS011;28110;47.080;9.476;2023-09-18T05:53:38;23.50;;;4.40;;
42478;SDS011;28110;47.080;9.476;2023-09-18T05:56:04;22.65;;;3.60;;
42478;SDS011;28110;47.080;9.476;2023-09-18T05:58:31;22.80;;;3.33;;
42478;SDS011;28110;47.080;9.476;2023-09-18T06:00:58;18.93;;;3.17;;
42478;SDS011;28110;47.080;9.476;2023-09-18T06:03:25;19.55;;;3.88;;
42478;SDS011;28110;47.080;9.476;2023-09-18T06:05:55;22.17;;;4.10;;
42478;SDS011;28110;47.080;9.476;2023-09-18T06:08:21;18.67;;;3.55;;
42478;SDS011;28110;47.080;9.476;2023-09-18T06:10:47;16.47;;;3.53;;
42478;SDS011;28110;47.080;9.476;2023-09-18T06:13:13;21.33;;;4.20;;
42478;SDS011;28110;47.080;9.476;2023-09-18T06:15:38;22.40;;;3.37;;
42478;SDS011;28110;47.080;9.476;2023-09-18T06:18:04;18.40;;;4.00;;
42478;SDS011;28110;47.080;9.476;2023-09-18T06:20:31;14.07;;;3.23;;
42478;SDS011;28110;47.080;9.476;2023-09-18T06:22:57;15.57;;;3.58;;
42478;SDS011;28110;47.080;9.476;2023-09-18T06:25:22;16.60;;;3.20;;
42478;SDS011;28110;47.080;9.476;2023-09-18T06:27:48;15.23;;;3.17;;
42478;SDS011;28110;47.080;9.476;2023-09-18T06:30:14;14.97;;;3.17;;
42478;SDS011;28110;47.080;9.476;2023-09-18T06:32:39;25.67;;;3.57;;
42478;SDS011;28110;47.080;9.476;2023-09-18T06:35:05;22.27;;;3.63;;
42478;SDS011;28110;47.080;9.476;2023-09-18T06:37:31;15.07;;;3.40;;
42478;SDS011;28110;47.080;9.476;2023-09-18T06:39:56;22.25;;;3.38;;
42478;SDS011;28110;47.080;9.476;2023-09-18T06:42:23;19.50;;;3.08;;
42478;SDS011;28110;47.080;9.476;2023-09-18T06:44:48;18.87;;;3.73;;
42478;SDS011;28110;47.080;9.476;2023-09-18T06:47:14;21.57;;;3.30;;
42478;SDS011;28110;47.080;9.476;2023-09-18T06:49:40;19.55;;;3.67;;
42478;SDS011;28110;47.080;9.476;2023-09-18T06:52:06;17.03;;;3.93;;
42478;SDS011;28110;47.080;9.476;2023-09-18T06:54:32;24.17;;;3.30;;
42478;SDS011;28110;47.080;9.476;2023-09-18T06:56:58;23.73;;;4.00;;
42478;SDS011;28110;47.080;9.476;2023-09-18T06:59:23;22.75;;;3.65;;
42478;SDS011;28110;47.080;9.476;2023-09-18T07:01:49;15.10;;;2.93;;
42478;SDS011;28110;47.080;9.476;2023-09-18T07:04:15;18.10;;;3.17;;
42478;SDS011;28110;47.080;9.476;2023-09-18T07:06:40;31.90;;;3.53;;
42478;SDS011;28110;47.080;9.476;2023-09-18T07:09:06;16.07;;;3.50;;
42478;SDS011;28110;47.080;9.476;2023-09-18T07:11:32;14.90;;;3.25;;
42478;SDS011;28110;47.080;9.476;2023-09-18T07:13:58;19.73;;;3.60;;
42478;SDS011;28110;47.080;9.476;2023-09-18T07:16:24;21.67;;;4.80;;
42478;SDS011;28110;47.080;9.476;2023-09-18T07:18:50;11.87;;;2.93;;
42478;SDS011;28110;47.080;9.476;2023-09-18T07:21:16;11.03;;;2.87;;
42478;SDS011;28110;47.080;9.476;2023-09-18T07:23:41;11.90;;;3.58;;
42478;SDS011;28110;47.080;9.476;2023-09-18T07:26:07;14.30;;;3.57;;
42478;SDS011;28110;47.080;9.476;2023-09-18T07:28:32;18.77;;;3.10;;
42478;SDS011;28110;47.080;9.476;2023-09-18T07:31:04;15.13;;;3.20;;
42478;SDS011;28110;47.080;9.476;2023-09-18T07:33:31;12.63;;;3.60;;
42478;SDS011;28110;47.080;9.476;2023-09-18T07:35:56;6.37;;;2.47;;
42478;SDS011;28110;47.080;9.476;2023-09-18T07:38:22;13.75;;;3.08;;
42478;SDS011;28110;47.080;9.476;2023-09-18T07:40:48;14.83;;;3.33;;
42478;SDS011;28110;47.080;9.476;2023-09-18T07:43:14;14.05;;;3.58;;
42478;SDS011;28110;47.080;9.476;2023-09-18T07:45:39;16.37;;;3.80;;
42478;SDS011;28110;47.080;9.476;2023-09-18T07:48:06;26.80;;;4.03;;
42478;SDS011;28110;47.080;9.476;2023-09-18T07:50:32;20.67;;;3.80;;
42478;SDS011;28110;47.080;9.476;2023-09-18T07:52:58;16.77;;;4.13;;
42478;SDS011;28110;47.080;9.476;2023-09-18T07:55:24;16.35;;;4.88;;
42478;SDS011;28110;47.080;9.476;2023-09-18T07:57:50;20.30;;;4.15;;
42478;SDS011;28110;47.080;9.476;2023-09-18T08:00:16;20.13;;;3.67;;
42478;SDS011;28110;47.080;9.476;2023-09-18T08:02:43;17.65;;;4.00;;
42478;SDS011;28110;47.080;9.476;2023-09-18T08:05:09;22.00;;;4.35;;
42478;SDS011;28110;47.080;9.476;2023-09-18T08:07:38;14.33;;;4.30;;
42478;SDS011;28110;47.080;9.476;2023-09-18T08:10:03;16.95;;;4.22;;
42478;SDS011;28110;47.080;9.476;2023-09-18T08:12:31;17.17;;;4.53;;
42478;SDS011;28110;47.080;9.476;2023-09-18T08:14:57;17.98;;;3.90;;
42478;SDS011;28110;47.080;9.476;2023-09-18T08:17:24;20.05;;;4.07;;
42478;SDS011;28110;47.080;9.476;2023-09-18T08:19:53;16.60;;;3.83;;
42478;SDS011;28110;47.080;9.476;2023-09-18T08:22:19;18.67;;;4.05;;
42478;SDS011;28110;47.080;9.476;2023-09-18T08:24:49;17.55;;;3.60;;
42478;SDS011;28110;47.080;9.476;2023-09-18T08:27:17;17.20;;;4.07;;
42478;SDS011;28110;47.080;9.476;2023-09-18T08:29:43;14.70;;;4.17;;
42478;SDS011;28110;47.080;9.476;2023-09-18T08:32:10;18.80;;;4.68;;
42478;SDS011;28110;47.080;9.476;2023-09-18T08:34:35;17.33;;;3.88;;
42478;SDS011;28110;47.080;9.476;2023-09-18T08:37:01;13.73;;;3.90;;
42478;SDS011;28110;47.080;9.476;2023-09-18T08:39:27;19.25;;;4.50;;
42478;SDS011;28110;47.080;9.476;2023-09-18T08:41:55;15.57;;;3.63;;
42478;SDS011;28110;47.080;9.476;2023-09-18T08:44:27;17.75;;;3.83;;
42478;SDS011;28110;47.080;9.476;2023-09-18T08:46:56;14.73;;;3.90;;
42478;SDS011;28110;47.080;9.476;2023-09-18T08:49:22;19.90;;;4.07;;
42478;SDS011;28110;47.080;9.476;2023-09-18T08:51:49;17.00;;;4.35;;
42478;SDS011;28110;47.080;9.476;2023-09-18T08:54:19;17.02;;;4.47;;
42478;SDS011;28110;47.080;9.476;2023-09-18T08:56:50;16.48;;;4.40;;
42478;SDS011;28110;47.080;9.476;2023-09-18T08:59:16;16.03;;;4.00;;
42478;SDS011;28110;47.080;9.476;2023-09-18T09:01:42;20.05;;;4.10;;
42478;SDS011;28110;47.080;9.476;2023-09-18T09:04:07;17.53;;;3.93;;
42478;SDS011;28110;47.080;9.476;2023-09-18T09:06:33;16.13;;;3.77;;
42478;SDS011;28110;47.080;9.476;2023-09-18T09:08:59;11.63;;;4.00;;
42478;SDS011;28110;47.080;9.476;2023-09-18T09:11:24;13.50;;;3.70;;
42478;SDS011;28110;47.080;9.476;2023-09-18T09:16:38;21.63;;;5.03;;
42478;SDS011;28110;47.080;9.476;2023-09-18T09:19:05;15.43;;;4.23;;
42478;SDS011;28110;47.080;9.476;2023-09-18T09:21:40;15.00;;;4.22;;
42478;SDS011;28110;47.080;9.476;2023-09-18T09:24:08;18.95;;;4.20;;
42478;SDS011;28110;47.080;9.476;2023-09-18T09:26:38;16.40;;;4.47;;
42478;SDS011;28110;47.080;9.476;2023-09-18T09:29:15;17.53;;;4.10;;
42478;SDS011;28110;47.080;9.476;2023-09-18T09:31:43;19.35;;;4.30;;
42478;SDS011;28110;47.080;9.476;2023-09-18T09:34:10;17.40;;;3.92;;
42478;SDS011;28110;47.080;9.476;2023-09-18T09:36:36;16.17;;;3.90;;
42478;SDS011;28110;47.080;9.476;2023-09-18T09:39:01;11.85;;;4.22;;
42478;SDS011;28110;47.080;9.476;2023-09-18T09:41:30;12.57;;;4.05;;
42478;SDS011;28110;47.080;9.476;2023-09-18T09:43:57;16.33;;;3.93;;
42478;SDS011;28110;47.080;9.476;2023-09-18T09:46:23;15.13;;;4.05;;
42478;SDS011;28110;47.080;9.476;2023-09-18T09:49:03;14.35;;;4.00;;
42478;SDS011;28110;47.080;9.476;2023-09-18T09:51:30;15.88;;;4.63;;
42478;SDS011;28110;47.080;9.476;2023-09-18T09:53:56;12.30;;;4.30;;
42478;SDS011;28110;47.080;9.476;2023-09-18T09:56:39;15.77;;;4.63;;
42478;SDS011;28110;47.080;9.476;2023-09-18T09:59:10;14.32;;;4.43;;
42478;SDS011;28110;47.080;9.476;2023-09-18T10:01:38;11.23;;;2.97;;
42478;SDS011;28110;47.080;9.476;2023-09-18T10:04:05;8.25;;;2.50;;
42478;SDS011;28110;47.080;9.476;2023-09-18T10:06:34;8.43;;;2.30;;
42478;SDS011;28110;47.080;9.476;2023-09-18T10:09:04;7.17;;;2.17;;
42478;SDS011;28110;47.080;9.476;2023-09-18T10:11:32;5.57;;;1.80;;
42478;SDS011;28110;47.080;9.476;2023-09-18T10:14:06;4.78;;;1.80;;
42478;SDS011;28110;47.080;9.476;2023-09-18T10:16:37;4.45;;;1.75;;
42478;SDS011;28110;47.080;9.476;2023-09-18T10:19:11;9.27;;;2.10;;
42478;SDS011;28110;47.080;9.476;2023-09-18T10:24:47;5.22;;;1.98;;
42478;SDS011;28110;47.080;9.476;2023-09-18T10:27:18;7.10;;;1.98;;
42478;SDS011;28110;47.080;9.476;2023-09-18T10:29:47;5.80;;;2.30;;
42478;SDS011;28110;47.080;9.476;2023-09-18T10:32:16;8.57;;;2.25;;
42478;SDS011;28110;47.080;9.476;2023-09-18T10:34:45;7.40;;;2.43;;
42478;SDS011;28110;47.080;9.476;2023-09-18T10:37:12;5.97;;;2.00;;
42478;SDS011;28110;47.080;9.476;2023-09-18T10:39:39;10.68;;;2.72;;
42478;SDS011;28110;47.080;9.476;2023-09-18T10:42:07;8.55;;;1.98;;
42478;SDS011;28110;47.080;9.476;2023-09-18T10:44:33;6.68;;;2.40;;
42478;SDS011;28110;47.080;9.476;2023-09-18T10:47:00;6.37;;;2.40;;
42478;SDS011;28110;47.080;9.476;2023-09-18T10:49:30;7.72;;;2.28;;
42478;SDS011;28110;47.080;9.476;2023-09-18T10:51:56;7.82;;;2.78;;
42478;SDS011;28110;47.080;9.476;2023-09-18T10:54:23;10.38;;;2.33;;
42478;SDS011;28110;47.080;9.476;2023-09-18T10:56:50;8.18;;;2.40;;
42478;SDS011;28110;47.080;9.476;2023-09-18T10:59:17;7.30;;;2.20;;
42478;SDS011;28110;47.080;9.476;2023-09-18T11:01:43;6.38;;;1.92;;
42478;SDS011;28110;47.080;9.476;2023-09-18T11:04:09;7.68;;;1.80;;
42478;SDS011;28110;47.080;9.476;2023-09-18T11:09:20;5.82;;;1.65;;
42478;SDS011;28110;47.080;9.476;2023-09-18T11:11:46;5.33;;;1.77;;
42478;SDS011;28110;47.080;9.476;2023-09-18T11:14:17;5.90;;;1.73;;
42478;SDS011;28110;47.080;9.476;2023-09-18T11:16:42;3.93;;;1.50;;
42478;SDS011;28110;47.080;9.476;2023-09-18T11:19:10;3.17;;;1.37;;
42478;SDS011;28110;47.080;9.476;2023-09-18T11:21:37;5.88;;;1.65;;
42478;SDS011;28110;47.080;9.476;2023-09-18T11:26:36;3.78;;;1.20;;
42478;SDS011;28110;47.080;9.476;2023-09-18T11:29:06;3.40;;;0.90;;
42478;SDS011;28110;47.080;9.476;2023-09-18T11:31:46;4.60;;;1.10;;
42478;SDS011;28110;47.080;9.476;2023-09-18T11:36:45;2.63;;;0.73;;
42478;SDS011;28110;47.080;9.476;2023-09-18T11:39:12;2.97;;;0.70;;
42478;SDS011;28110;47.080;9.476;2023-09-18T11:41:38;1.70;;;0.60;;
42478;SDS011;28110;47.080;9.476;2023-09-18T11:46:37;4.57;;;0.80;;
42478;SDS011;28110;47.080;9.476;2023-09-18T11:49:05;2.67;;;1.10;;
42478;SDS011;28110;47.080;9.476;2023-09-18T11:51:35;0.95;;;0.65;;
42478;SDS011;28110;47.080;9.476;2023-09-18T11:54:02;2.42;;;0.70;;
42478;SDS011;28110;47.080;9.476;2023-09-18T11:56:31;1.17;;;0.57;;
42478;SDS011;28110;47.080;9.476;2023-09-18T11:58:57;1.25;;;0.50;;
42478;SDS011;28110;47.080;9.476;2023-09-18T12:01:24;1.57;;;0.60;;
42478;SDS011;28110;47.080;9.476;2023-09-18T12:03:54;1.60;;;0.75;;
42478;SDS011;28110;47.080;9.476;2023-09-18T12:06:27;1.25;;;0.82;;
42478;SDS011;28110;47.080;9.476;2023-09-18T12:08:52;2.43;;;0.60;;
42478;SDS011;28110;47.080;9.476;2023-09-18T12:11:18;1.63;;;0.60;;
42478;SDS011;28110;47.080;9.476;2023-09-18T12:13:46;1.70;;;0.50;;
42478;SDS011;28110;47.080;9.476;2023-09-18T12:16:13;1.08;;;0.50;;
42478;SDS011;28110;47.080;9.476;2023-09-18T12:18:44;3.83;;;0.90;;
42478;SDS011;28110;47.080;9.476;2023-09-18T12:21:14;0.95;;;0.50;;
42478;SDS011;28110;47.080;9.476;2023-09-18T12:23:42;0.98;;;0.70;;
42478;SDS011;28110;47.080;9.476;2023-09-18T12:26:10;1.55;;;0.60;;
42478;SDS011;28110;47.080;9.476;2023-09-18T12:28:41;2.23;;;0.60;;
42478;SDS011;28110;47.080;9.476;2023-09-18T12:31:13;2.17;;;0.60;;
42478;SDS011;28110;47.080;9.476;2023-09-18T12:33:40;2.75;;;0.63;;
42478;SDS011;28110;47.080;9.476;2023-09-18T12:36:08;0.77;;;0.60;;
42478;SDS011;28110;47.080;9.476;2023-09-18T12:38:35;3.15;;;0.50;;
42478;SDS011;28110;47.080;9.476;2023-09-18T12:41:02;2.00;;;0.80;;
42478;SDS011;28110;47.080;9.476;2023-09-18T12:43:35;2.53;;;0.70;;
42478;SDS011;28110;47.080;9.476;2023-09-18T12:46:02;2.08;;;0.90;;
42478;SDS011;28110;47.080;9.476;2023-09-18T12:48:29;2.75;;;0.90;;
42478;SDS011;28110;47.080;9.476;2023-09-18T12:50:55;2.10;;;0.70;;
42478;SDS011;28110;47.080;9.476;2023-09-18T12:53:27;2.60;;;0.80;;
42478;SDS011;28110;47.080;9.476;2023-09-18T12:55:52;2.20;;;1.20;;
42478;SDS011;28110;47.080;9.476;2023-09-18T12:58:18;1.50;;;0.70;;
42478;SDS011;28110;47.080;9.476;2023-09-18T13:00:45;2.47;;;0.90;;
42478;SDS011;28110;47.080;9.476;2023-09-18T13:03:12;1.58;;;1.00;;
42478;SDS011;28110;47.080;9.476;2023-09-18T13:05:38;1.92;;;0.95;;
42478;SDS011;28110;47.080;9.476;2023-09-18T13:08:04;1.95;;;0.85;;
42478;SDS011;28110;47.080;9.476;2023-09-18T13:10:46;2.45;;;0.90;;
42478;SDS011;28110;47.080;9.476;2023-09-18T13:13:18;2.73;;;0.90;;
42478;SDS011;28110;47.080;9.476;2023-09-18T13:15:44;2.50;;;0.68;;
42478;SDS011;28110;47.080;9.476;2023-09-18T13:18:12;0.95;;;0.73;;
42478;SDS011;28110;47.080;9.476;2023-09-18T13:20:38;3.90;;;0.90;;
42478;SDS011;28110;47.080;9.476;2023-09-18T13:23:05;2.75;;;0.65;;
42478;SDS011;28110;47.080;9.476;2023-09-18T13:25:33;2.10;;;0.80;;
42478;SDS011;28110;47.080;9.476;2023-09-18T13:28:01;2.05;;;0.70;;
42478;SDS011;28110;47.080;9.476;2023-09-18T13:30:28;1.33;;;0.60;;
42478;SDS011;28110;47.080;9.476;2023-09-18T13:33:09;0.80;;;0.60;;
42478;SDS011;28110;47.080;9.476;2023-09-18T13:35:36;1.08;;;0.60;;
42478;SDS011;28110;47.080;9.476;2023-09-18T13:38:03;1.80;;;0.60;;
42478;SDS011;28110;47.080;9.476;2023-09-18T13:40:42;0.50;;;0.50;;
42478;SDS011;28110;47.080;9.476;2023-09-18T13:43:10;0.73;;;0.60;;
42478;SDS011;28110;47.080;9.476;2023-09-18T13:45:36;1.00;;;0.50;;
42478;SDS011;28110;47.080;9.476;2023-09-18T13:48:03;1.42;;;0.55;;
42478;SDS011;28110;47.080;9.476;2023-09-18T13:50:29;0.50;;;0.50;;
42478;SDS011;28110;47.080;9.476;2023-09-18T13:52:55;0.98;;;0.50;;
42478;SDS011;28110;47.080;9.476;2023-09-18T13:55:20;1.17;;;0.50;;
42478;SDS011;28110;47.080;9.476;2023-09-18T13:57:46;1.73;;;0.60;;
42478;SDS011;28110;47.080;9.476;2023-09-18T14:00:12;1.87;;;0.40;;
42478;SDS011;28110;47.080;9.476;2023-09-18T14:02:39;0.93;;;0.50;;
42478;SDS011;28110;47.080;9.476;2023-09-18T14:05:05;0.95;;;0.60;;
42478;SDS011;28110;47.080;9.476;2023-09-18T14:07:31;1.30;;;0.60;;
42478;SDS011;28110;47.080;9.476;2023-09-18T14:09:57;0.40;;;0.40;;
42478;SDS011;28110;47.080;9.476;2023-09-18T14:12:23;1.70;;;0.57;;
42478;SDS011;28110;47.080;9.476;2023-09-18T14:14:49;3.95;;;0.65;;
42478;SDS011;28110;47.080;9.476;2023-09-18T14:17:15;0.83;;;0.40;;
42478;SDS011;28110;47.080;9.476;2023-09-18T14:19:42;2.45;;;0.70;;
42478;SDS011;28110;47.080;9.476;2023-09-18T14:22:08;0.55;;;0.40;;
42478;SDS011;28110;47.080;9.476;2023-09-18T14:24:34;1.30;;;0.50;;
42478;SDS011;28110;47.080;9.476;2023-09-18T14:27:00;1.35;;;0.70;;
42478;SDS011;28110;47.080;9.476;2023-09-18T14:29:26;1.63;;;0.60;;
42478;SDS011;28110;47.080;9.476;2023-09-18T14:31:52;1.67;;;0.60;;
42478;SDS011;28110;47.080;9.476;2023-09-18T14:34:18;1.70;;;0.63;;
42478;SDS011;28110;47.080;9.476;2023-09-18T14:36:43;1.33;;;0.60;;
42478;SDS011;28110;47.080;9.476;2023-09-18T14:39:09;0.90;;;0.60;;
42478;SDS011;28110;47.080;9.476;2023-09-18T14:41:36;0.98;;;0.55;;
42478;SDS011;28110;47.080;9.476;2023-09-18T14:44:02;1.20;;;0.50;;
42478;SDS011;28110;47.080;9.476;2023-09-18T14:46:29;1.48;;;0.50;;
42478;SDS011;28110;47.080;9.476;2023-09-18T14:48:59;3.03;;;0.67;;
42478;SDS011;28110;47.080;9.476;2023-09-18T14:51:25;0.50;;;0.50;;
42478;SDS011;28110;47.080;9.476;2023-09-18T14:53:51;1.45;;;0.50;;
42478;SDS011;28110;47.080;9.476;2023-09-18T14:56:17;0.83;;;0.40;;